Terminal Aerodrome Forecast
Issued by NWS

Home | Current Version | Previous Version | Text Only | Print | Product List | Glossary Off
Versions: 1 2 3 4 5 6 7 8 9 10 11 12 13

000
FTUS43 KUNR 101734
TAFGCC
TAF
KGCC 101734Z 1018/1118 25014KT P6SM SKC
     FM110300 30015G25KT P6SM SCT250 WS015/33045KT
     FM111200 29012G22KT P6SM SCT250
     FM111500 30010KT P6SM SKC=

USA.gov is the U.S. government's official web portal to all federal, state and local government web resources and services.